Time;durP1;ratioP1;P1;durP2;ratioP2;P2;SDS_P1;SDS_P2;PMS_P1;PMS_P2;Temp;Humidity;BMP_temperature;BMP_pressure;BME280_temperature;BME280_humidity;BME280_pressure;Samples;Min_cycle;Max_cycle;Signal;HPM_P1;HPM_P2
2023/04/06 03:01:27;;;;;;;2.42;1.30;;;15.70;50.40;;;;;;5527205;22;45857;-63
2023/04/06 03:03:53;;;;;;;1.42;0.90;;;15.70;50.50;;;;;;4949058;28;45632;-63
2023/04/06 03:06:18;;;;;;;1.42;1.05;;;15.60;50.40;;;;;;4975129;28;45488;-64
2023/04/06 03:08:45;;;;;;;1.65;1.08;;;15.60;50.40;;;;;;4962866;28;45146;-64
2023/04/06 03:11:10;;;;;;;1.00;0.90;;;15.60;50.40;;;;;;4975372;28;46698;-63
2023/04/06 03:13:38;;;;;;;1.00;0.90;;;15.60;50.50;;;;;;4963486;28;45525;-65
2023/04/06 03:16:04;;;;;;;1.73;1.20;;;15.60;50.40;;;;;;4976980;28;45228;-63
2023/04/06 03:18:30;;;;;;;1.48;1.00;;;15.60;50.40;;;;;;4972034;28;45169;-63
2023/04/06 03:20:55;;;;;;;1.67;1.10;;;15.60;50.40;;;;;;4990542;28;46236;-63
2023/04/06 03:23:24;;;;;;;1.60;0.90;;;15.60;50.40;;;;;;4988812;28;45243;-63
2023/04/06 03:25:50;;;;;;;1.70;1.02;;;15.60;50.40;;;;;;4998612;28;45621;-63
2023/04/06 03:28:15;;;;;;;1.98;1.00;;;15.60;50.40;;;;;;4977927;28;45219;-64
2023/04/06 03:30:41;;;;;;;4.00;1.20;;;15.60;50.40;;;;;;4991760;28;46443;-63
2023/04/06 03:33:07;;;;;;;1.45;0.90;;;15.60;50.50;;;;;;4965300;28;45262;-64
2023/04/06 03:35:32;;;;;;;1.10;1.00;;;15.60;50.50;;;;;;5000379;28;45415;-64
2023/04/06 03:37:58;;;;;;;1.10;0.90;;;15.60;50.50;;;;;;4986622;28;45005;-63
2023/04/06 03:40:24;;;;;;;1.50;1.10;;;15.60;50.50;;;;;;4996706;28;45458;-62
2023/04/06 03:42:50;;;;;;;2.33;1.45;;;15.50;50.50;;;;;;4980369;28;44886;-63
2023/04/06 03:45:16;;;;;;;1.42;1.00;;;15.50;50.50;;;;;;4977789;28;45587;-63
2023/04/06 03:47:41;;;;;;;2.25;1.05;;;15.50;50.50;;;;;;4993304;28;45415;-64
2023/04/06 03:50:07;;;;;;;1.15;1.00;;;15.50;50.50;;;;;;4977359;28;45583;-64
2023/04/06 03:52:34;;;;;;;1.85;1.30;;;15.50;50.50;;;;;;4955700;28;45532;-63
2023/04/06 03:55:00;;;;;;;1.25;0.93;;;15.50;50.50;;;;;;4985014;28;45634;-65
2023/04/06 03:57:25;;;;;;;2.20;1.35;;;15.50;50.50;;;;;;4979957;28;45377;-64
2023/04/06 03:59:51;;;;;;;1.85;1.08;;;15.40;50.50;;;;;;4980093;28;45998;-63
2023/04/06 04:02:16;;;;;;;1.55;0.90;;;15.40;50.40;;;;;;4967563;28;45797;-64
2023/04/06 04:04:42;;;;;;;2.00;1.15;;;15.40;50.50;;;;;;5001464;28;45212;-63
2023/04/06 04:07:07;;;;;;;1.98;1.20;;;15.40;50.50;;;;;;4978732;28;46184;-63
2023/04/06 04:09:33;;;;;;;1.70;1.10;;;15.40;50.50;;;;;;4998554;28;45401;-62
2023/04/06 04:11:59;;;;;;;1.65;1.10;;;15.40;50.50;;;;;;4960647;28;45718;-63
2023/04/06 04:14:25;;;;;;;1.20;0.90;;;15.40;50.40;;;;;;5000298;28;44756;-64
2023/04/06 04:16:51;;;;;;;1.90;1.13;;;15.40;50.50;;;;;;4965382;28;45064;-63
2023/04/06 04:19:16;;;;;;;1.73;1.27;;;15.40;50.50;;;;;;4992723;28;46085;-64
2023/04/06 04:21:44;;;;;;;1.65;1.23;;;15.40;50.50;;;;;;5001058;28;45359;-63
2023/04/06 04:24:09;;;;;;;1.30;1.10;;;15.40;50.50;;;;;;4978280;28;45229;-62
2023/04/06 04:26:35;;;;;;;1.50;1.20;;;15.40;50.50;;;;;;4975040;28;44927;-63
2023/04/06 04:29:00;;;;;;;1.55;1.10;;;15.40;50.50;;;;;;5000756;28;45512;-63
2023/04/06 04:31:26;;;;;;;1.65;1.10;;;15.40;50.50;;;;;;4977490;28;45299;-63
2023/04/06 04:33:52;;;;;;;1.67;1.20;;;15.40;50.50;;;;;;4960793;28;45785;-63
2023/04/06 04:36:17;;;;;;;1.20;0.95;;;15.30;50.50;;;;;;4995723;28;45068;-63
2023/04/06 04:38:43;;;;;;;1.40;1.00;;;15.30;50.50;;;;;;4982593;28;45405;-63
2023/04/06 04:41:08;;;;;;;1.48;1.13;;;15.30;50.60;;;;;;4967865;28;45170;-63
2023/04/06 04:43:34;;;;;;;1.30;1.10;;;15.30;50.50;;;;;;4998745;28;45442;-63
2023/04/06 04:46:00;;;;;;;1.60;1.20;;;15.30;50.60;;;;;;4993728;28;45574;-64
2023/04/06 04:48:25;;;;;;;2.28;1.27;;;15.30;50.60;;;;;;4984755;28;46006;-63
2023/04/06 04:50:51;;;;;;;4.05;1.27;;;15.30;50.60;;;;;;4960823;28;45181;-63
2023/04/06 04:53:17;;;;;;;1.67;1.15;;;15.30;50.60;;;;;;4976326;28;45491;-64
2023/04/06 04:55:42;;;;;;;1.88;1.40;;;15.30;50.60;;;;;;4989241;28;45485;-64
2023/04/06 04:58:09;;;;;;;1.70;1.27;;;15.30;50.60;;;;;;4998888;28;45650;-63
2023/04/06 05:00:34;;;;;;;2.13;1.13;;;15.30;50.60;;;;;;4968254;28;45660;-66
2023/04/06 05:03:00;;;;;;;1.33;0.95;;;15.30;50.60;;;;;;4970361;28;45111;-65
2023/04/06 05:05:26;;;;;;;1.33;1.08;;;15.20;50.50;;;;;;4961691;28;45389;-66
2023/04/06 05:07:52;;;;;;;1.63;1.20;;;15.20;50.50;;;;;;4965970;28;45161;-65
2023/04/06 05:10:17;;;;;;;2.03;1.40;;;15.20;50.50;;;;;;4997124;28;45358;-64
2023/04/06 05:12:43;;;;;;;2.15;1.20;;;15.20;50.60;;;;;;4992931;28;45721;-66
2023/04/06 05:15:11;;;;;;;1.58;1.20;;;15.20;50.60;;;;;;4982245;28;45272;-65
2023/04/06 05:17:37;;;;;;;1.95;1.25;;;15.20;50.60;;;;;;4971347;28;45563;-65
2023/04/06 05:20:03;;;;;;;1.67;0.93;;;15.20;50.60;;;;;;4985143;28;45780;-66
2023/04/06 05:22:29;;;;;;;1.58;1.10;;;15.20;50.60;;;;;;4967181;28;45690;-64
2023/04/06 05:24:54;;;;;;;1.60;1.10;;;15.20;50.60;;;;;;4996338;28;46167;-65
2023/04/06 05:27:20;;;;;;;1.00;0.90;;;15.20;50.60;;;;;;4974208;28;45349;-65
2023/04/06 05:29:46;;;;;;;2.13;1.20;;;15.20;50.60;;;;;;4955501;28;45425;-64
2023/04/06 05:32:11;;;;;;;1.42;1.10;;;15.20;50.50;;;;;;4987608;28;45256;-65
2023/04/06 05:34:37;;;;;;;1.17;0.80;;;15.20;50.50;;;;;;4975635;28;45556;-65
2023/04/06 05:37:02;;;;;;;2.15;1.50;;;15.20;50.50;;;;;;4960205;28;45727;-64
2023/04/06 05:39:28;;;;;;;1.58;1.05;;;15.20;50.40;;;;;;4982830;28;46411;-65
2023/04/06 05:41:53;;;;;;;2.30;1.60;;;15.20;50.30;;;;;;4980990;28;45288;-65
2023/04/06 05:44:19;;;;;;;1.85;1.40;;;15.20;50.30;;;;;;4986491;28;45661;-64
2023/04/06 05:46:45;;;;;;;1.85;1.55;;;15.20;50.30;;;;;;4967845;28;45620;-66
2023/04/06 05:49:10;;;;;;;11.40;10.70;;;15.20;50.30;;;;;;4983798;28;45001;-65
2023/04/06 05:51:36;;;;;;;42.97;39.78;;;15.20;50.30;;;;;;4998296;28;45302;-68
2023/04/06 05:54:01;;;;;;;8.80;8.20;;;15.40;49.90;;;;;;4985867;28;45474;-65
2023/04/06 05:56:27;;;;;;;12.55;11.65;;;15.40;47.20;;;;;;4968956;28;47341;-68
2023/04/06 05:58:53;;;;;;;10.93;9.90;;;15.40;44.20;;;;;;4981837;28;45364;-69
2023/04/06 06:01:18;;;;;;;9.32;8.45;;;15.30;42.50;;;;;;4951190;28;44965;-71
2023/04/06 06:03:44;;;;;;;17.20;14.98;;;15.40;41.50;;;;;;4976447;28;46240;-70
2023/04/06 06:06:10;;;;;;;48.63;44.83;;;15.50;40.50;;;;;;4965293;28;45464;-68
2023/04/06 06:08:35;;;;;;;4.95;3.92;;;15.70;40.90;;;;;;5000138;28;44632;-69
2023/04/06 06:11:01;;;;;;;7.45;3.45;;;15.90;40.90;;;;;;4973417;28;46161;-69
2023/04/06 06:13:27;;;;;;;4.55;2.88;;;16.20;42.20;;;;;;4973750;28;45232;-69
2023/04/06 06:15:53;;;;;;;5.53;2.67;;;16.60;41.70;;;;;;4960451;28;47057;-68
2023/04/06 06:18:18;;;;;;;5.63;2.50;;;17.10;41.00;;;;;;4976353;28;44783;-71
2023/04/06 06:20:44;;;;;;;5.55;2.40;;;17.50;40.40;;;;;;4994102;28;45667;-69
2023/04/06 06:23:10;;;;;;;4.90;2.60;;;17.80;39.90;;;;;;5001564;28;45263;-66
2023/04/06 06:25:35;;;;;;;4.82;2.40;;;17.60;40.20;;;;;;4976220;28;45563;-67
2023/04/06 06:28:01;;;;;;;3.75;2.28;;;17.20;41.50;;;;;;4979666;28;45300;-68
2023/04/06 06:30:27;;;;;;;3.92;2.22;;;17.00;42.20;;;;;;4974605;28;45643;-66
2023/04/06 06:32:52;;;;;;;3.42;2.08;;;17.00;42.60;;;;;;4965109;28;44845;-71
2023/04/06 06:35:18;;;;;;;4.28;2.13;;;17.10;42.90;;;;;;4968614;28;46496;-80
2023/04/06 06:37:44;;;;;;;3.03;2.03;;;17.10;42.90;;;;;;4950427;28;45185;-68
2023/04/06 06:40:12;;;;;;;3.15;2.30;;;17.20;43.00;;;;;;4958786;28;45365;-70
2023/04/06 06:42:38;;;;;;;4.07;2.10;;;17.30;43.00;;;;;;4974043;28;45457;-67
2023/04/06 06:45:05;;;;;;;3.22;1.80;;;17.50;43.00;;;;;;4978468;28;48588;-69
2023/04/06 06:47:31;;;;;;;3.38;2.00;;;17.60;42.90;;;;;;4947145;28;45188;-67
2023/04/06 06:49:56;;;;;;;2.90;2.20;;;17.80;43.00;;;;;;4974861;28;45262;-66
2023/04/06 06:52:23;;;;;;;2.60;1.95;;;17.90;42.90;;;;;;4975621;28;45317;-66
2023/04/06 06:54:49;;;;;;;4.93;2.35;;;18.00;42.90;;;;;;4998933;28;46571;-67
2023/04/06 06:57:15;;;;;;;3.15;2.10;;;18.20;42.90;;;;;;4976507;28;46190;-68
2023/04/06 06:59:40;;;;;;;3.45;1.70;;;18.30;42.90;;;;;;4985998;28;45538;-67
2023/04/06 07:02:06;;;;;;;6.25;1.90;;;18.40;42.80;;;;;;4974456;28;45391;-67
2023/04/06 07:04:32;;;;;;;3.05;1.63;;;18.60;42.90;;;;;;4987033;28;45514;-70
2023/04/06 07:06:57;;;;;;;1.83;1.50;;;18.70;42.90;;;;;;4967679;28;45535;-71
2023/04/06 07:09:23;;;;;;;3.88;1.58;;;18.80;42.90;;;;;;4964805;28;45446;-63
2023/04/06 07:11:48;;;;;;;2.80;1.60;;;18.90;42.90;;;;;;4977343;28;45311;-71
2023/04/06 07:14:15;;;;;;;3.30;1.77;;;19.10;42.80;;;;;;4953173;28;45362;-67
2023/04/06 07:16:41;;;;;;;3.05;1.48;;;19.20;42.80;;;;;;4977943;28;45331;-68
2023/04/06 07:19:07;;;;;;;2.47;1.52;;;19.40;42.80;;;;;;4980833;28;45766;-69
2023/04/06 07:21:32;;;;;;;1.88;1.50;;;19.50;42.60;;;;;;4972914;28;46564;-69
2023/04/06 07:23:58;;;;;;;1.48;1.25;;;19.60;42.70;;;;;;4964332;28;46852;-67
2023/04/06 07:26:23;;;;;;;2.05;1.20;;;19.70;42.60;;;;;;4979208;28;44745;-65
2023/04/06 07:28:49;;;;;;;2.58;1.63;;;19.80;42.60;;;;;;4941002;28;45591;-67
2023/04/06 07:31:14;;;;;;;2.60;1.48;;;19.90;42.50;;;;;;4972660;28;45592;-70
2023/04/06 07:33:40;;;;;;;3.35;1.70;;;20.00;42.40;;;;;;4981567;28;46914;-67
2023/04/06 07:36:06;;;;;;;2.58;1.42;;;20.20;42.40;;;;;;4985330;28;45688;-68
2023/04/06 07:38:31;;;;;;;1.70;1.40;;;20.30;42.40;;;;;;4980091;28;45601;-66
2023/04/06 07:40:57;;;;;;;2.13;1.20;;;20.40;42.30;;;;;;4980788;28;46074;-70
2023/04/06 07:43:22;;;;;;;2.88;1.48;;;20.50;42.30;;;;;;4976860;28;46042;-70
2023/04/06 07:45:48;;;;;;;2.25;1.50;;;20.60;42.30;;;;;;4974245;28;45220;-69
2023/04/06 07:48:13;;;;;;;2.40;1.30;;;20.70;42.20;;;;;;4957682;28;45296;-68
2023/04/06 07:50:39;;;;;;;1.55;1.23;;;20.80;42.20;;;;;;4972189;28;44757;-67
2023/04/06 07:53:05;;;;;;;2.80;1.67;;;20.80;42.10;;;;;;4986635;28;47077;-69
2023/04/06 07:55:30;;;;;;;1.85;1.27;;;20.90;42.10;;;;;;4981639;28;44964;-68
2023/04/06 07:57:56;;;;;;;1.67;1.25;;;21.00;42.00;;;;;;4946740;28;46212;-66
2023/04/06 08:00:22;;;;;;;1.80;1.45;;;21.10;42.00;;;;;;4992393;28;45481;-68
2023/04/06 08:02:47;;;;;;;1.40;1.25;;;21.10;42.00;;;;;;4984395;28;45498;-68
2023/04/06 08:05:13;;;;;;;1.77;1.25;;;21.20;41.90;;;;;;4979837;28;45420;-68
2023/04/06 08:07:38;;;;;;;1.88;1.27;;;21.20;41.90;;;;;;4979934;28;45601;-68
2023/04/06 08:10:04;;;;;;;1.98;1.35;;;21.30;41.90;;;;;;4980984;28;45287;-70
2023/04/06 08:12:31;;;;;;;2.42;1.30;;;21.30;41.90;;;;;;4966898;28;47074;-69
2023/04/06 08:14:56;;;;;;;1.63;1.23;;;21.40;41.90;;;;;;4970348;28;44760;-70
2023/04/06 08:17:22;;;;;;;2.03;1.48;;;21.50;41.90;;;;;;4941550;28;45857;-67
2023/04/06 08:19:48;;;;;;;1.38;1.10;;;21.50;41.80;;;;;;4967516;28;45440;-67
2023/04/06 08:22:13;;;;;;;2.33;1.50;;;21.60;41.90;;;;;;4977539;28;45755;-67
2023/04/06 08:24:39;;;;;;;1.40;1.10;;;21.60;41.80;;;;;;4987431;28;44809;-67
2023/04/06 08:27:04;;;;;;;1.85;1.23;;;21.70;41.80;;;;;;4965160;28;45251;-69
2023/04/06 08:29:30;;;;;;;1.70;1.38;;;21.70;41.70;;;;;;4989079;28;45578;-67
2023/04/06 08:31:56;;;;;;;3.85;1.27;;;21.80;41.80;;;;;;4988514;28;46523;-69
2023/04/06 08:34:22;;;;;;;3.80;1.23;;;21.90;41.80;;;;;;4953151;28;45267;-70
2023/04/06 08:36:48;;;;;;;2.28;1.40;;;22.00;41.80;;;;;;4980979;28;45555;-69
2023/04/06 08:39:13;;;;;;;3.17;1.60;;;22.00;41.60;;;;;;4965427;28;45543;-69
2023/04/06 08:41:41;;;;;;;4.30;1.48;;;22.10;41.60;;;;;;4977905;28;45334;-68
2023/04/06 08:44:07;;;;;;;1.77;1.05;;;22.20;41.50;;;;;;4975731;28;45437;-72
2023/04/06 08:46:33;;;;;;;3.92;1.45;;;22.20;41.50;;;;;;4972374;28;45258;-68
2023/04/06 08:48:59;;;;;;;5.93;1.30;;;22.30;41.50;;;;;;4983667;28;45591;-67
2023/04/06 08:51:26;;;;;;;2.65;1.33;;;22.40;41.50;;;;;;4942691;28;45375;-67
2023/04/06 08:53:54;;;;;;;2.55;1.20;;;22.40;41.50;;;;;;4978499;28;45056;-69
2023/04/06 08:56:20;;;;;;;1.83;1.20;;;22.40;41.40;;;;;;4993208;28;45209;-68
2023/04/06 08:58:46;;;;;;;2.47;1.10;;;22.50;41.40;;;;;;4976728;28;45492;-68
2023/04/06 09:01:11;;;;;;;2.58;1.58;;;22.60;41.40;;;;;;4962780;28;45934;-67
2023/04/06 09:03:39;;;;;;;4.03;1.20;;;22.60;41.30;;;;;;4978048;28;45315;-67
2023/04/06 09:06:05;;;;;;;1.88;1.13;;;22.60;41.30;;;;;;4968324;28;45243;-68
2023/04/06 09:08:32;;;;;;;2.63;0.88;;;22.70;41.30;;;;;;4979612;28;45018;-70
2023/04/06 09:10:58;;;;;;;1.42;1.20;;;22.80;41.40;;;;;;4978559;28;46763;-74
2023/04/06 09:13:23;;;;;;;1.75;1.02;;;22.80;41.30;;;;;;4952563;28;45207;-68
2023/04/06 09:16:05;;;;;;;1.98;1.10;;;22.80;41.30;;;;;;4974633;28;45278;-68
2023/04/06 09:18:32;;;;;;;1.27;0.80;;;22.90;40.80;;;;;;4984272;28;45495;-70
2023/04/06 09:21:02;;;;;;;1.55;1.10;;;23.00;41.20;;;;;;4968065;28;45680;-68
2023/04/06 09:23:28;;;;;;;2.00;1.15;;;23.00;41.10;;;;;;4987269;28;45449;-66
2023/04/06 09:26:14;;;;;;;2.80;1.10;;;23.00;41.10;;;;;;4955729;28;46108;-68
2023/04/06 09:28:50;;;;;;;2.08;1.17;;;23.10;40.80;;;;;;4985586;28;45550;-67
2023/04/06 09:31:17;;;;;;;1.52;1.20;;;23.20;41.00;;;;;;4985172;28;47689;-68
2023/04/06 09:33:44;;;;;;;1.92;1.08;;;23.20;41.10;;;;;;4993186;28;45520;-68
2023/04/06 09:36:10;;;;;;;2.38;1.08;;;23.20;41.10;;;;;;4933642;28;45719;-67
2023/04/06 09:38:59;;;;;;;1.30;1.00;;;23.30;41.10;;;;;;4966438;28;45381;-69
2023/04/06 09:41:32;;;;;;;1.15;0.75;;;23.30;40.70;;;;;;4978814;28;46300;-69
2023/04/06 09:44:04;;;;;;;3.83;1.07;;;23.40;41.10;;;;;;4970382;28;45276;-69
2023/04/06 09:46:33;;;;;;;1.42;1.02;;;23.40;40.90;;;;;;4976031;28;45477;-69
2023/04/06 09:49:02;;;;;;;1.75;0.88;;;23.50;41.00;;;;;;4998525;28;45619;-68
2023/04/06 09:51:30;;;;;;;1.90;1.00;;;23.50;41.00;;;;;;4963624;28;46334;-68
2023/04/06 09:54:00;;;;;;;2.22;1.00;;;23.50;41.00;;;;;;4957155;28;45033;-68
2023/04/06 09:56:27;;;;;;;1.65;0.95;;;23.40;41.10;;;;;;4958431;28;44768;-71
2023/04/06 09:58:55;;;;;;;1.00;0.90;;;23.30;41.30;;;;;;4948029;28;45583;-74
2023/04/06 10:01:23;;;;;;;1.55;0.77;;;23.40;41.50;;;;;;4987702;28;45648;-69
2023/04/06 10:04:14;;;;;;;1.65;1.00;;;23.40;41.30;;;;;;4962494;28;45358;-66
2023/04/06 10:06:40;;;;;;;2.15;1.10;;;23.50;41.70;;;;;;4976927;28;45435;-67
2023/04/06 10:09:07;;;;;;;1.40;1.10;;;23.50;41.10;;;;;;4960352;28;46806;-69
2023/04/06 10:11:34;;;;;;;1.83;0.95;;;23.60;41.10;;;;;;4975184;28;46272;-71
2023/04/06 10:14:00;;;;;;;2.47;1.35;;;23.70;41.10;;;;;;4983045;28;45539;-68
2023/04/06 10:16:27;;;;;;;1.42;0.90;;;23.70;41.00;;;;;;4976106;28;45597;-68
2023/04/06 10:18:56;;;;;;;1.67;1.00;;;23.70;40.90;;;;;;4996998;28;45500;-67
2023/04/06 10:21:25;;;;;;;3.53;1.02;;;23.70;40.90;;;;;;4965904;28;45459;-68
2023/04/06 10:23:52;;;;;;;1.10;1.00;;;23.60;41.00;;;;;;4963594;28;44633;-67
2023/04/06 10:26:20;;;;;;;1.27;0.88;;;23.50;41.00;;;;;;4961967;28;45376;-67
2023/04/06 10:28:46;;;;;;;1.35;1.00;;;23.40;41.20;;;;;;5003833;28;45509;-69
2023/04/06 10:31:12;;;;;;;1.05;0.95;;;23.30;41.40;;;;;;4983538;28;45629;-67
2023/04/06 10:33:38;;;;;;;1.50;0.90;;;23.20;41.60;;;;;;4971918;28;45517;-67
2023/04/06 10:36:14;;;;;;;1.60;1.15;;;23.20;41.70;;;;;;4983204;28;44752;-67
2023/04/06 10:38:40;;;;;;;1.42;1.00;;;23.10;41.70;;;;;;4984467;28;45577;-68
2023/04/06 10:41:06;;;;;;;1.10;1.00;;;23.00;41.90;;;;;;4967459;28;45407;-67
2023/04/06 10:43:36;;;;;;;1.45;0.90;;;22.90;42.00;;;;;;4973639;28;45428;-67
2023/04/06 10:46:02;;;;;;;1.20;1.00;;;22.90;42.10;;;;;;4975910;28;45622;-67
2023/04/06 10:48:41;;;;;;;1.38;1.00;;;22.80;42.20;;;;;;4954529;28;45359;-67
2023/04/06 10:51:11;;;;;;;2.55;1.20;;;22.80;42.10;;;;;;4993915;28;45612;-69
2023/04/06 10:53:37;;;;;;;1.38;1.08;;;22.70;42.30;;;;;;4987425;28;45361;-67
2023/04/06 10:56:03;;;;;;;1.40;1.02;;;22.60;42.40;;;;;;4971365;28;44805;-67
2023/04/06 10:58:29;;;;;;;1.55;1.10;;;22.60;42.50;;;;;;5003719;28;44926;-67
2023/04/06 11:00:55;;;;;;;1.55;1.00;;;22.50;42.50;;;;;;4979853;28;45372;-66
2023/04/06 11:03:21;;;;;;;1.70;0.75;;;22.50;42.60;;;;;;4988515;28;45175;-66
2023/04/06 11:05:51;;;;;;;1.80;1.10;;;22.50;42.60;;;;;;4986198;28;45213;-69
2023/04/06 11:08:27;;;;;;;7.28;1.15;;;22.40;42.60;;;;;;5001888;28;45187;-66
2023/04/06 11:11:10;;;;;;;1.08;0.88;;;22.40;42.60;;;;;;4999902;28;46859;-67
2023/04/06 11:13:44;;;;;;;4.38;1.88;;;22.40;42.70;;;;;;4994519;28;45593;-68
2023/04/06 11:16:15;;;;;;;1.00;0.90;;;22.30;42.80;;;;;;4981660;28;45196;-67
2023/04/06 11:18:58;;;;;;;1.52;0.98;;;22.30;42.90;;;;;;4977026;28;44804;-67
2023/04/06 11:21:43;;;;;;;1.67;1.08;;;22.20;43.00;;;;;;4993561;28;47327;-66
2023/04/06 11:24:09;;;;;;;2.08;1.15;;;22.20;43.00;;;;;;4975561;28;45594;-67
2023/04/06 11:26:43;;;;;;;3.20;0.90;;;22.10;43.20;;;;;;4975992;28;45129;-67
2023/04/06 11:29:09;;;;;;;1.45;1.00;;;22.10;43.30;;;;;;4998462;28;45393;-67
2023/04/06 11:31:45;;;;;;;1.17;1.00;;;22.00;43.30;;;;;;4949923;28;47138;-67
2023/04/06 11:34:12;;;;;;;1.25;0.88;;;22.00;43.40;;;;;;4985232;28;45322;-67
2023/04/06 11:36:41;;;;;;;1.17;1.00;;;21.90;43.40;;;;;;4961479;28;45771;-67
2023/04/06 11:39:06;;;;;;;2.85;0.88;;;21.90;43.50;;;;;;4972354;28;45394;-66
2023/04/06 11:41:32;;;;;;;1.27;1.00;;;21.90;43.50;;;;;;4949581;28;45791;-67
2023/04/06 11:44:00;;;;;;;1.85;1.05;;;21.80;43.60;;;;;;4986849;28;45329;-67
2023/04/06 11:46:26;;;;;;;1.45;1.00;;;21.80;43.60;;;;;;4964639;28;45201;-67
2023/04/06 11:48:51;;;;;;;2.33;1.30;;;21.70;43.60;;;;;;4987698;28;45418;-66
2023/04/06 11:51:26;;;;;;;1.88;1.10;;;21.70;43.70;;;;;;4983527;28;47371;-66
2023/04/06 11:53:52;;;;;;;1.20;0.93;;;21.60;43.70;;;;;;5004659;28;45061;-66
2023/04/06 11:56:28;;;;;;;1.40;1.10;;;21.60;43.80;;;;;;4980010;28;46117;-67
2023/04/06 11:58:57;;;;;;;2.10;1.00;;;21.50;43.90;;;;;;4967219;28;45838;-66
2023/04/06 12:01:24;;;;;;;1.17;1.08;;;21.50;43.90;;;;;;4988234;28;45619;-66
2023/04/06 12:03:50;;;;;;;2.60;1.27;;;21.50;44.10;;;;;;4971949;28;45080;-67
2023/04/06 12:06:16;;;;;;;1.63;1.10;;;21.40;44.10;;;;;;4949338;28;45549;-66
2023/04/06 12:08:42;;;;;;;2.60;1.25;;;21.40;44.10;;;;;;4969296;28;46295;-66
2023/04/06 12:11:07;;;;;;;3.03;0.82;;;21.30;44.20;;;;;;4990218;28;45270;-67
2023/04/06 12:13:33;;;;;;;1.65;0.95;;;21.30;44.30;;;;;;5003848;28;45223;-66
2023/04/06 12:15:59;;;;;;;1.65;1.15;;;21.20;44.20;;;;;;4958425;28;45481;-68
2023/04/06 12:18:25;;;;;;;2.63;1.00;;;21.20;44.30;;;;;;4987532;28;45509;-66
2023/04/06 12:20:51;;;;;;;2.10;1.10;;;21.20;44.40;;;;;;4999128;28;46518;-66
2023/04/06 12:23:18;;;;;;;1.83;0.93;;;21.10;44.40;;;;;;5002872;28;45323;-67
2023/04/06 12:25:44;;;;;;;1.20;0.90;;;21.10;44.50;;;;;;4954189;28;45345;-67
2023/04/06 12:28:09;;;;;;;1.50;0.90;;;21.10;44.60;;;;;;4953846;28;45968;-66
2023/04/06 12:30:35;;;;;;;1.13;1.00;;;21.00;44.60;;;;;;4979302;28;47480;-66
2023/04/06 12:33:01;;;;;;;1.08;0.90;;;21.00;44.70;;;;;;4943031;28;45453;-67
2023/04/06 12:35:27;;;;;;;0.98;0.85;;;21.00;44.70;;;;;;4997546;28;45183;-66
2023/04/06 12:37:52;;;;;;;2.03;1.20;;;20.90;44.70;;;;;;4985863;28;45555;-67
2023/04/06 12:40:18;;;;;;;1.42;1.13;;;20.90;44.80;;;;;;4982188;28;46783;-68
2023/04/06 12:42:45;;;;;;;1.98;0.90;;;20.80;44.80;;;;;;4986424;28;45660;-66
2023/04/06 12:45:11;;;;;;;1.20;0.88;;;20.80;44.80;;;;;;4966436;28;45294;-67
2023/04/06 12:47:37;;;;;;;1.40;1.10;;;20.80;44.90;;;;;;4967992;28;45649;-66
2023/04/06 12:50:05;;;;;;;1.02;0.88;;;20.80;45.00;;;;;;4989148;28;46301;-67
2023/04/06 12:52:31;;;;;;;1.42;0.90;;;20.70;45.00;;;;;;4955354;28;45523;-66
2023/04/06 12:54:59;;;;;;;1.35;1.05;;;20.70;45.00;;;;;;4974529;28;45188;-67
2023/04/06 12:57:25;;;;;;;1.73;1.10;;;20.70;45.00;;;;;;4996379;28;45184;-66
2023/04/06 12:59:51;;;;;;;1.33;0.90;;;20.60;45.10;;;;;;4987998;28;45339;-66
2023/04/06 13:02:17;;;;;;;1.13;0.90;;;20.60;45.10;;;;;;4991163;28;45159;-66
2023/04/06 13:04:42;;;;;;;1.13;1.02;;;20.60;45.20;;;;;;4968261;28;45260;-66
2023/04/06 13:07:08;;;;;;;1.42;1.08;;;20.50;45.20;;;;;;4939462;28;45293;-66
2023/04/06 13:09:34;;;;;;;1.48;1.10;;;20.60;45.30;;;;;;4984695;28;46437;-66
2023/04/06 13:12:00;;;;;;;1.23;1.00;;;20.50;45.30;;;;;;4966358;28;45526;-66
2023/04/06 13:14:26;;;;;;;1.05;0.90;;;20.50;45.40;;;;;;4990726;28;45382;-66
2023/04/06 13:16:52;;;;;;;2.35;1.00;;;20.50;45.40;;;;;;4960822;28;45112;-66
2023/04/06 13:19:18;;;;;;;3.03;0.93;;;20.40;45.40;;;;;;4968155;28;47168;-66
2023/04/06 13:21:43;;;;;;;1.98;1.20;;;20.40;45.50;;;;;;4981299;28;45163;-67
2023/04/06 13:24:09;;;;;;;1.35;1.10;;;20.40;45.50;;;;;;4997518;28;45576;-66
2023/04/06 13:26:35;;;;;;;1.27;1.05;;;20.30;45.50;;;;;;4983312;28;45244;-66
2023/04/06 13:29:02;;;;;;;1.38;1.00;;;20.30;45.50;;;;;;4969557;28;47698;-66
2023/04/06 13:31:28;;;;;;;0.98;0.82;;;20.30;45.50;;;;;;4997221;28;45200;-69
2023/04/06 13:33:54;;;;;;;1.38;1.08;;;20.30;45.60;;;;;;4962110;28;45481;-67
2023/04/06 13:36:19;;;;;;;1.20;1.00;;;20.30;45.70;;;;;;4996531;28;46370;-66
2023/04/06 13:38:45;;;;;;;1.42;0.90;;;20.20;45.70;;;;;;4970601;28;45447;-66
2023/04/06 13:41:21;;;;;;;1.48;0.98;;;20.20;45.80;;;;;;4995406;28;46452;-65
2023/04/06 13:43:47;;;;;;;2.13;1.00;;;20.20;45.80;;;;;;4985902;28;45464;-66
2023/04/06 13:46:12;;;;;;;1.67;1.15;;;20.20;45.80;;;;;;4995482;28;45213;-66
2023/04/06 13:48:38;;;;;;;2.47;1.15;;;20.20;45.80;;;;;;4959063;28;45597;-66
2023/04/06 13:51:11;;;;;;;0.93;0.77;;;20.10;45.80;;;;;;4981049;28;45319;-67
2023/04/06 13:53:36;;;;;;;2.35;0.90;;;20.10;45.90;;;;;;5001356;28;45184;-66
2023/04/06 13:56:02;;;;;;;1.08;0.98;;;20.10;45.90;;;;;;4982250;28;45607;-66
2023/04/06 13:58:27;;;;;;;2.40;1.15;;;20.10;45.90;;;;;;4984354;28;46426;-66
2023/04/06 14:00:53;;;;;;;1.02;0.75;;;20.00;46.00;;;;;;4992883;28;45316;-66
2023/04/06 14:03:19;;;;;;;1.45;1.00;;;20.00;46.00;;;;;;4981485;28;45265;-67
2023/04/06 14:05:45;;;;;;;1.75;1.00;;;20.00;46.10;;;;;;4951615;28;44674;-66
2023/04/06 14:08:10;;;;;;;3.38;1.10;;;20.00;46.00;;;;;;4965975;28;46991;-66
2023/04/06 14:10:40;;;;;;;1.48;0.90;;;20.00;46.10;;;;;;4984339;28;45359;-66
2023/04/06 14:13:06;;;;;;;2.22;1.30;;;20.00;46.10;;;;;;4976517;28;45176;-67
2023/04/06 14:15:32;;;;;;;1.48;1.00;;;20.00;46.10;;;;;;4977942;28;45072;-67
2023/04/06 14:17:57;;;;;;;1.25;0.93;;;19.90;46.20;;;;;;4963372;28;45983;-66
2023/04/06 14:20:23;;;;;;;3.35;1.00;;;19.90;46.20;;;;;;4993174;28;45460;-66
2023/04/06 14:22:49;;;;;;;0.88;0.73;;;19.80;46.20;;;;;;4981782;28;45842;-66
2023/04/06 14:25:15;;;;;;;1.15;0.60;;;19.90;46.20;;;;;;5003713;28;44754;-67
2023/04/06 14:27:42;;;;;;;1.25;0.93;;;19.90;46.20;;;;;;5000911;28;47466;-66
2023/04/06 14:30:08;;;;;;;1.40;0.80;;;19.90;46.20;;;;;;4970880;28;44736;-67
2023/04/06 14:32:36;;;;;;;1.20;1.00;;;19.80;46.20;;;;;;4964997;28;45310;-66
2023/04/06 14:35:01;;;;;;;1.10;0.90;;;19.80;46.20;;;;;;4971961;28;45502;-65
2023/04/06 14:37:27;;;;;;;0.70;0.60;;;19.80;46.30;;;;;;4997808;28;47844;-66
2023/04/06 14:39:52;;;;;;;1.23;0.75;;;19.80;46.30;;;;;;4991495;28;45214;-66
2023/04/06 14:42:18;;;;;;;1.73;0.98;;;19.80;46.40;;;;;;4999501;28;45120;-67
2023/04/06 14:44:45;;;;;;;1.08;0.93;;;19.70;46.40;;;;;;5004755;28;45286;-66
2023/04/06 14:47:11;;;;;;;1.02;0.93;;;19.70;46.40;;;;;;5000186;28;45666;-66
2023/04/06 14:49:36;;;;;;;1.67;1.00;;;19.70;46.40;;;;;;4987782;28;44965;-66
2023/04/06 14:52:02;;;;;;;1.30;0.93;;;19.70;46.40;;;;;;4980812;28;44739;-67
2023/04/06 14:54:28;;;;;;;1.02;0.75;;;19.70;46.50;;;;;;4989546;28;45268;-66
2023/04/06 14:56:54;;;;;;;1.02;0.80;;;19.60;46.40;;;;;;4962736;28;45848;-66
2023/04/06 14:59:19;;;;;;;1.40;0.80;;;19.60;46.50;;;;;;4999284;28;45140;-66
2023/04/06 15:01:45;;;;;;;2.08;0.93;;;19.60;46.50;;;;;;4971496;28;45307;-66
2023/04/06 15:04:10;;;;;;;1.25;1.00;;;19.60;46.60;;;;;;4983341;28;45524;-67
2023/04/06 15:06:36;;;;;;;2.42;1.10;;;19.60;46.50;;;;;;4976988;28;47339;-66
2023/04/06 15:09:02;;;;;;;1.27;0.98;;;19.50;46.50;;;;;;4969450;28;45271;-66
2023/04/06 15:11:28;;;;;;;1.45;1.10;;;19.50;46.60;;;;;;4970469;28;45174;-66
2023/04/06 15:13:54;;;;;;;1.38;1.02;;;19.50;46.60;;;;;;4981582;28;45263;-65
2023/04/06 15:16:19;;;;;;;1.00;0.90;;;19.50;46.70;;;;;;4975600;28;45853;-66
2023/04/06 15:18:45;;;;;;;0.90;0.75;;;19.50;46.70;;;;;;4970179;28;45383;-66
2023/04/06 15:21:10;;;;;;;1.25;0.98;;;19.50;46.70;;;;;;4978204;28;44824;-66
2023/04/06 15:23:36;;;;;;;1.13;0.80;;;19.40;46.70;;;;;;4953126;28;45779;-66
2023/04/06 15:26:01;;;;;;;1.00;0.90;;;19.40;46.70;;;;;;4982231;28;45368;-66
2023/04/06 15:28:28;;;;;;;1.60;1.00;;;19.40;46.70;;;;;;4987394;28;44981;-67
2023/04/06 15:30:54;;;;;;;0.95;0.73;;;19.40;46.70;;;;;;4974649;28;45384;-66
2023/04/06 15:33:20;;;;;;;1.95;1.00;;;19.40;46.80;;;;;;4988041;28;45156;-66
2023/04/06 15:35:46;;;;;;;1.33;0.82;;;19.30;46.80;;;;;;4966493;28;47065;-66
2023/04/06 15:38:11;;;;;;;1.33;0.80;;;19.30;46.80;;;;;;4971134;28;45126;-67
2023/04/06 15:40:47;;;;;;;1.52;1.10;;;19.30;46.80;;;;;;4981940;28;45330;-66
2023/04/06 15:43:13;;;;;;;1.17;0.77;;;19.30;46.90;;;;;;4983081;28;46096;-67